createdAt,value
2022-11-18T00:00:03.549Z,98861.25
2022-11-18T00:03:06.455Z,98870.41
2022-11-18T00:06:11.944Z,98878.34
2022-11-18T00:09:13.406Z,98868.75
2022-11-18T00:12:33.244Z,98877.91
2022-11-18T00:15:34.762Z,98876.22
2022-11-18T00:18:36.832Z,98882.47
2022-11-18T00:21:38.393Z,98883.50
2022-11-18T00:24:39.871Z,98888.09
2022-11-18T00:27:41.414Z,98890.78
2022-11-18T00:30:42.975Z,98888.09
2022-11-18T00:33:44.464Z,98892.66
2022-11-18T00:36:47.022Z,98887.44
2022-11-18T00:39:48.515Z,98886.59
2022-11-18T00:42:53.621Z,98891.19
2022-11-18T00:45:55.152Z,98894.06
2022-11-18T00:48:56.603Z,98898.66
2022-11-18T00:51:58.206Z,98905.94
2022-11-18T00:54:59.648Z,98896.97
2022-11-18T00:58:01.087Z,98895.28
2022-11-18T01:01:04.191Z,98909.66
2022-11-18T01:04:05.804Z,98904.47
2022-11-18T01:07:07.326Z,98908.00
2022-11-18T01:10:09.249Z,98915.28
2022-11-18T01:13:20.184Z,98915.91
2022-11-18T01:16:24.189Z,98915.28
2022-11-18T01:19:26.344Z,98915.66
2022-11-18T01:22:27.916Z,98923.59
2022-11-18T01:25:30.243Z,98914.81
2022-11-18T01:28:32.063Z,98922.75
2022-11-18T01:31:33.559Z,98921.06
2022-11-18T01:34:35.273Z,98918.34
2022-11-18T01:37:37.213Z,98923.78
2022-11-18T01:40:39.109Z,98926.69
2022-11-18T01:44:01.475Z,98931.88
2022-11-18T01:47:02.939Z,98936.88
2022-11-18T01:50:05.180Z,98936.88
2022-11-18T01:53:12.087Z,98945.81
2022-11-18T01:56:21.117Z,98945.81
2022-11-18T01:59:27.607Z,98947.69
2022-11-18T02:02:31.018Z,98943.31
2022-11-18T02:05:34.739Z,98946.03
2022-11-18T02:08:37.541Z,98944.31
2022-11-18T02:11:51.589Z,98950.78
2022-11-18T02:14:53.410Z,98949.94
2022-11-18T02:18:07.031Z,98946.19
2022-11-18T02:21:27.062Z,98945.38
2022-11-18T02:24:54.972Z,98950.97
2022-11-18T02:28:05.433Z,98956.38
2022-11-18T02:31:49.783Z,98964.50
2022-11-18T02:35:01.078Z,98973.44
2022-11-18T02:38:11.762Z,98978.88
2022-11-18T02:41:18.989Z,98971.78
2022-11-18T02:44:24.186Z,98979.06
2022-11-18T02:47:28.992Z,98978.25
2022-11-18T02:50:33.457Z,98977.38
2022-11-18T02:53:38.161Z,98986.38
2022-11-18T02:56:41.127Z,98977.59
2022-11-18T02:59:42.657Z,98987.59
2022-11-18T03:02:46.666Z,98988.41
2022-11-18T03:06:06.592Z,98996.53
2022-11-18T03:09:18.571Z,98998.41
2022-11-18T03:12:29.204Z,98988.41
2022-11-18T03:15:51.812Z,98994.66
2022-11-18T03:19:04.344Z,98988.59
2022-11-18T03:22:05.737Z,98984.38
2022-11-18T03:25:21.112Z,98988.78
2022-11-18T03:28:37.061Z,98994.38
2022-11-18T03:31:46.495Z,98994.56
2022-11-18T03:34:52.605Z,99001.00
2022-11-18T03:38:02.564Z,99004.75
2022-11-18T03:41:08.403Z,99016.59
2022-11-18T03:44:13.753Z,99019.47
2022-11-18T03:47:22.857Z,99024.06
2022-11-18T03:50:31.976Z,99023.19
2022-11-18T03:53:37.096Z,99031.31
2022-11-18T03:56:45.987Z,99033.38
2022-11-18T03:59:53.663Z,99048.59
2022-11-18T04:02:55.453Z,99051.66
2022-11-18T04:06:05.422Z,99058.75
2022-11-18T04:09:13.432Z,99056.22
2022-11-18T04:12:18.858Z,99055.41
2022-11-18T04:15:20.622Z,99062.69
2022-11-18T04:18:22.748Z,99061.63
2022-11-18T04:21:24.237Z,99071.63
2022-11-18T04:24:25.767Z,99069.75
2022-11-18T04:27:27.258Z,99069.97
2022-11-18T04:30:29.378Z,99066.41
2022-11-18T04:33:30.826Z,99071.19
2022-11-18T04:36:32.402Z,99074.72
2022-11-18T04:39:33.924Z,99083.66
2022-11-18T04:42:35.598Z,99077.22
2022-11-18T04:45:37.070Z,99085.34
2022-11-18T04:48:38.554Z,99081.63
2022-11-18T04:51:41.313Z,99086.19
2022-11-18T04:54:43.082Z,99088.91
2022-11-18T04:57:44.566Z,99096.38
2022-11-18T05:00:46.033Z,99098.25
2022-11-18T05:03:50.570Z,99089.91
2022-11-18T05:06:53.199Z,99094.50
2022-11-18T05:09:54.705Z,99092.81
2022-11-18T05:12:56.220Z,99102.78
2022-11-18T05:16:01.227Z,99106.16
2022-11-18T05:19:04.663Z,99109.06
2022-11-18T05:22:07.327Z,99109.06
2022-11-18T05:25:09.391Z,99117.34
2022-11-18T05:28:10.938Z,99109.25
2022-11-18T05:31:16.343Z,99121.72
2022-11-18T05:34:18.609Z,99117.53
2022-11-18T05:37:20.151Z,99124.81
2022-11-18T05:40:21.601Z,99133.97
2022-11-18T05:43:23.123Z,99141.25
2022-11-18T05:46:24.992Z,99136.69
2022-11-18T05:49:26.446Z,99136.69
2022-11-18T05:52:28.031Z,99148.50
2022-11-18T05:55:35.268Z,99148.34
2022-11-18T05:58:36.763Z,99156.63
2022-11-18T06:01:40.257Z,99155.78
2022-11-18T06:04:54.675Z,99159.31
2022-11-18T06:07:57.683Z,99158.31
2022-11-18T06:10:59.571Z,99168.13
2022-11-18T06:14:10.056Z,99176.72
2022-11-18T06:17:19.568Z,99176.53
2022-11-18T06:20:21.635Z,99180.94
2022-11-18T06:23:23.530Z,99189.69
2022-11-18T06:26:25.080Z,99186.81
2022-11-18T06:29:28.270Z,99182.25
2022-11-18T06:32:30.044Z,99188.47
2022-11-18T06:35:31.561Z,99188.31
2022-11-18T06:38:33.049Z,99196.44
2022-11-18T06:41:34.572Z,99198.81
2022-11-18T06:44:36.098Z,99203.22
2022-11-18T06:47:37.838Z,99205.72
2022-11-18T06:50:39.352Z,99201.81
2022-11-18T06:53:40.877Z,99211.63
2022-11-18T06:56:42.375Z,99216.69
2022-11-18T06:59:44.030Z,99220.88
2022-11-18T07:02:45.504Z,99221.72
2022-11-18T07:05:46.984Z,99233.38
2022-11-18T07:08:49.235Z,99234.25
2022-11-18T07:11:50.772Z,99238.16
2022-11-18T07:14:52.269Z,99239.53
2022-11-18T07:17:53.742Z,99243.44
2022-11-18T07:20:55.200Z,99242.63
2022-11-18T07:23:58.920Z,99253.44
2022-11-18T07:27:00.368Z,99251.75
2022-11-18T07:30:01.888Z,99262.78
2022-11-18T07:33:03.474Z,99263.78
2022-11-18T07:36:10.824Z,99266.31
2022-11-18T07:39:12.406Z,99273.78
2022-11-18T07:42:13.891Z,99287.31
2022-11-18T07:45:15.447Z,99282.06
2022-11-18T07:48:16.995Z,99292.22
2022-11-18T07:51:21.119Z,99294.06
2022-11-18T07:54:22.694Z,99304.03
2022-11-18T07:57:24.217Z,99299.66
2022-11-18T08:00:25.743Z,99315.06
2022-11-18T08:03:28.223Z,99315.91
2022-11-18T08:06:33.023Z,99316.91
2022-11-18T08:09:34.551Z,99318.13
2022-11-18T08:12:36.063Z,99325.41
2022-11-18T08:15:41.401Z,99328.09
2022-11-18T08:18:43.310Z,99327.44
2022-11-18T08:21:44.761Z,99331.00
2022-11-18T08:24:50.078Z,99325.75
2022-11-18T08:27:52.393Z,99329.50
2022-11-18T08:30:53.917Z,99335.91
2022-11-18T08:34:03.352Z,99342.00
2022-11-18T08:37:04.886Z,99336.94
2022-11-18T08:40:06.823Z,99346.75
2022-11-18T08:43:10.976Z,99361.09
2022-11-18T08:46:12.494Z,99353.84
2022-11-18T08:49:14.650Z,99364.50
2022-11-18T08:52:16.206Z,99367.88
2022-11-18T08:55:17.697Z,99369.38
2022-11-18T08:58:19.219Z,99371.91
2022-11-18T09:01:20.811Z,99369.69
2022-11-18T09:04:22.538Z,99372.06
2022-11-18T09:07:24.175Z,99385.25
2022-11-18T09:10:25.725Z,99385.75
2022-11-18T09:13:56.264Z,99385.22
2022-11-18T09:16:48.651Z,99382.97
2022-11-18T09:19:50.143Z,99396.00
2022-11-18T09:22:51.706Z,99393.75
2022-11-18T09:26:08.449Z,99400.34
2022-11-18T09:29:11.574Z,99410.13
2022-11-18T09:32:13.921Z,99417.06
2022-11-18T09:35:15.710Z,99421.28
2022-11-18T09:38:17.236Z,99416.53
2022-11-18T09:41:44.116Z,99425.97
2022-11-18T09:44:54.601Z,99432.25
2022-11-18T09:48:06.261Z,99432.88
2022-11-18T09:51:11.373Z,99433.75
2022-11-18T09:54:30.460Z,99437.31
2022-11-18T09:57:39.288Z,99441.88
2022-11-18T10:00:43.539Z,99432.06
2022-11-18T10:03:45.071Z,99442.88
2022-11-18T10:06:49.095Z,99436.47
2022-11-18T10:09:54.499Z,99441.69
2022-11-18T10:13:05.787Z,99452.34
2022-11-18T10:16:31.545Z,99455.06
2022-11-18T10:19:54.760Z,99462.00
2022-11-18T10:23:28.690Z,99476.38
2022-11-18T10:26:39.398Z,99480.75
2022-11-18T10:29:42.231Z,99485.84
2022-11-18T10:33:22.176Z,99481.94
2022-11-18T10:36:23.585Z,99490.59
2022-11-18T10:39:25.101Z,99495.81
2022-11-18T10:42:29.560Z,99492.94
2022-11-18T10:45:32.477Z,99502.75
2022-11-18T10:48:40.338Z,99496.31
2022-11-18T10:51:46.533Z,99499.03
2022-11-18T10:55:26.024Z,99501.53
2022-11-18T10:58:30.548Z,99509.66
2022-11-18T11:01:32.195Z,99500.91
2022-11-18T11:04:36.490Z,99510.72
2022-11-18T11:07:38.254Z,99507.16
2022-11-18T11:10:39.783Z,99515.28
2022-11-18T11:13:44.652Z,99513.25
2022-11-18T11:17:15.518Z,99523.91
2022-11-18T11:20:17.147Z,99526.81
2022-11-18T11:23:23.514Z,99530.16
2022-11-18T11:30:27.805Z,99531.34
2022-11-18T11:33:36.492Z,99534.72
2022-11-18T11:36:41.128Z,99542.03
2022-11-18T11:39:48.505Z,99553.91
2022-11-18T11:43:08.204Z,99543.69
2022-11-18T11:46:19.247Z,99553.72
2022-11-18T11:49:41.436Z,99548.97
2022-11-18T11:52:54.971Z,99558.97
2022-11-18T11:56:11.530Z,99564.19
2022-11-18T11:59:28.322Z,99564.38
2022-11-18T12:02:37.243Z,99564.38
2022-11-18T12:05:42.881Z,99568.28
2022-11-18T12:09:09.715Z,99569.13
2022-11-18T12:12:35.587Z,99580.81
2022-11-18T12:15:59.158Z,99575.38
2022-11-18T12:19:21.641Z,99572.69
2022-11-18T12:22:23.523Z,99581.63
2022-11-18T12:25:43.598Z,99580.44
2022-11-18T12:28:45.673Z,99585.03
2022-11-18T12:31:50.500Z,99587.56
2022-11-18T12:35:14.996Z,99587.56
2022-11-18T12:38:31.560Z,99595.69
2022-11-18T12:42:00.840Z,99598.22
2022-11-18T12:45:40.231Z,99605.50
2022-11-18T12:48:42.205Z,99604.84
2022-11-18T12:51:44.285Z,99602.13
2022-11-18T12:54:49.041Z,99597.38
2022-11-18T12:57:50.744Z,99600.09
2022-11-18T13:01:06.319Z,99599.72
2022-11-18T13:04:14.442Z,99606.84
2022-11-18T13:07:39.417Z,99611.25
2022-11-18T13:10:44.283Z,99602.94
2022-11-18T13:13:46.380Z,99612.06
2022-11-18T13:17:07.249Z,99614.78
2022-11-18T13:20:31.045Z,99621.91
2022-11-18T13:23:56.144Z,99621.25
2022-11-18T13:27:00.991Z,99624.78
2022-11-18T13:30:12.727Z,99623.59
2022-11-18T13:33:14.233Z,99632.75
2022-11-18T13:36:20.905Z,99630.88
2022-11-18T13:39:23.180Z,99641.91
2022-11-18T13:42:27.865Z,99649.03
2022-11-18T13:45:30.413Z,99639.19
2022-11-18T13:48:34.999Z,99644.59
2022-11-18T13:51:38.615Z,99643.75
2022-11-18T13:54:41.273Z,99651.22
2022-11-18T13:57:48.060Z,99655.66
2022-11-18T14:01:01.584Z,99654.97
2022-11-18T14:04:16.171Z,99650.59
2022-11-18T14:07:33.483Z,99652.41
2022-11-18T14:10:43.979Z,99666.16
2022-11-18T14:13:59.862Z,99666.31
2022-11-18T14:17:27.942Z,99672.78
2022-11-18T14:20:30.731Z,99685.66
2022-11-18T14:23:36.323Z,99670.22
2022-11-18T14:26:38.684Z,99678.56
2022-11-18T14:29:49.505Z,99686.69
2022-11-18T14:33:06.173Z,99688.53
2022-11-18T14:36:13.999Z,99687.69
2022-11-18T14:39:27.422Z,99692.28
2022-11-18T14:42:29.318Z,99691.78
2022-11-18T14:45:31.286Z,99693.47
2022-11-18T14:48:32.993Z,99700.56
2022-11-18T14:51:34.512Z,99712.59
2022-11-18T14:54:36.010Z,99718.88
2022-11-18T14:57:37.582Z,99729.72
2022-11-18T15:00:39.581Z,99728.84
2022-11-18T15:03:41.115Z,99739.69
2022-11-18T15:06:42.719Z,99732.59
2022-11-18T15:09:44.775Z,99742.41
2022-11-18T15:12:46.286Z,99744.28
2022-11-18T15:15:48.423Z,99752.59
2022-11-18T15:18:52.611Z,99758.84
2022-11-18T15:21:54.145Z,99767.13
2022-11-18T15:24:55.627Z,99773.41
2022-11-18T15:27:57.258Z,99771.72
2022-11-18T15:30:58.755Z,99782.56
2022-11-18T15:34:06.283Z,99779.00
2022-11-18T15:37:12.235Z,99787.81
2022-11-18T15:40:14.018Z,99788.81
2022-11-18T15:43:16.268Z,99787.13
2022-11-18T15:46:19.349Z,99794.22
2022-11-18T15:49:21.003Z,99791.72
2022-11-18T15:52:22.943Z,99791.72
2022-11-18T15:55:24.488Z,99798.13
2022-11-18T15:58:26.017Z,99800.84
2022-11-18T16:01:30.208Z,99803.56
2022-11-18T16:04:31.737Z,99801.88
2022-11-18T16:07:33.346Z,99807.28
2022-11-18T16:10:54.603Z,99805.41
2022-11-18T16:14:05.743Z,99804.59
2022-11-18T16:17:07.236Z,99813.72
2022-11-18T16:20:09.048Z,99826.25
2022-11-18T16:23:10.561Z,99829.97
2022-11-18T16:26:12.007Z,99834.53
2022-11-18T16:29:16.590Z,99837.25
2022-11-18T16:32:18.143Z,99839.97
2022-11-18T16:35:19.636Z,99846.41
2022-11-18T16:38:21.171Z,99848.94
2022-11-18T16:41:31.503Z,99852.66
2022-11-18T16:44:33.059Z,99858.09
2022-11-18T16:47:34.542Z,99862.66
2022-11-18T16:50:36.022Z,99861.81
2022-11-18T16:53:37.524Z,99864.53
2022-11-18T16:56:40.622Z,99869.75
2022-11-18T16:59:42.214Z,99869.75
2022-11-18T17:02:43.754Z,99871.47
2022-11-18T17:05:45.233Z,99886.72
2022-11-18T17:08:47.252Z,99883.16
2022-11-18T17:11:49.697Z,99888.22
2022-11-18T17:14:51.232Z,99895.34
2022-11-18T17:17:52.762Z,99893.31
2022-11-18T17:20:54.324Z,99894.16
2022-11-18T17:23:56.639Z,99894.16
2022-11-18T17:26:58.182Z,99900.59
2022-11-18T17:29:59.686Z,99901.28
2022-11-18T17:33:01.419Z,99908.56
2022-11-18T17:36:16.853Z,99905.50
2022-11-18T17:39:20.618Z,99906.69
2022-11-18T17:42:25.569Z,99898.38
2022-11-18T17:45:27.111Z,99906.34
2022-11-18T17:48:30.203Z,99913.47
2022-11-18T17:51:31.822Z,99920.75
2022-11-18T17:54:33.335Z,99927.88
2022-11-18T17:57:34.863Z,99937.69
2022-11-18T18:00:37.272Z,99940.25
2022-11-18T18:03:39.934Z,99944.47
2022-11-18T18:06:41.481Z,99936.34
2022-11-18T18:09:43.084Z,99940.91
2022-11-18T18:13:03.451Z,99946.16
2022-11-18T18:16:05.329Z,99950.56
2022-11-18T18:19:08.176Z,99957.69
2022-11-18T18:22:09.729Z,99963.13
2022-11-18T18:25:12.070Z,99960.41
2022-11-18T18:28:13.637Z,99960.41
2022-11-18T18:31:16.907Z,99971.06
2022-11-18T18:34:19.222Z,99980.22
2022-11-18T18:37:21.009Z,99976.47
2022-11-18T18:40:22.781Z,99980.91
2022-11-18T18:43:24.325Z,99984.31
2022-11-18T18:46:30.766Z,99991.25
2022-11-18T18:49:32.563Z,99982.09
2022-11-18T18:52:34.033Z,99990.06
2022-11-18T18:55:37.292Z,99999.88
2022-11-18T18:58:42.030Z,99995.97
2022-11-18T19:01:43.649Z,100002.25
2022-11-18T19:04:46.490Z,99999.53
2022-11-18T19:07:48.029Z,100006.47
2022-11-18T19:10:49.567Z,100014.28
2022-11-18T19:13:51.050Z,100011.56
2022-11-18T19:16:53.291Z,100017.69
2022-11-18T19:20:20.699Z,100015.81
2022-11-18T19:23:22.273Z,100023.78
2022-11-18T19:26:23.862Z,100018.34
2022-11-18T19:29:25.898Z,100031.56
2022-11-18T19:32:27.462Z,100034.81
2022-11-18T19:38:35.693Z,100037.00
2022-11-18T19:41:37.168Z,100032.13
2022-11-18T19:44:39.270Z,100032.81
2022-11-18T19:47:40.937Z,100041.59
2022-11-18T19:50:42.438Z,100051.63
2022-11-18T19:53:44.211Z,100055.00
2022-11-18T19:56:45.671Z,100052.31
2022-11-18T19:59:47.226Z,100054.84
2022-11-18T20:02:51.326Z,100055.69
2022-11-18T20:05:52.890Z,100059.25
2022-11-18T20:08:55.697Z,100063.66
2022-11-18T20:11:57.304Z,100059.75
2022-11-18T20:14:58.781Z,100056.88
2022-11-18T20:18:01.517Z,100055.84
2022-11-18T20:21:07.921Z,100064.53
2022-11-18T20:24:15.678Z,100071.63
2022-11-18T20:27:18.685Z,100071.63
2022-11-18T20:30:20.740Z,100066.03
2022-11-18T20:33:22.202Z,100066.88
2022-11-18T20:36:31.164Z,100068.41
2022-11-18T20:39:32.732Z,100063.81
2022-11-18T20:42:53.118Z,100064.66
2022-11-18T20:45:57.362Z,100077.03
2022-11-18T20:48:58.942Z,100083.34
2022-11-18T20:52:00.538Z,100082.31
2022-11-18T20:55:05.646Z,100080.44
2022-11-18T20:58:08.066Z,100083.34
2022-11-18T21:01:18.366Z,100091.28
2022-11-18T21:04:19.886Z,100085.88
2022-11-18T21:07:21.437Z,100078.41
2022-11-18T21:10:22.962Z,100077.56
2022-11-18T21:13:43.018Z,100079.44
2022-11-18T21:16:45.761Z,100085.53
2022-11-18T21:19:48.616Z,100080.97
2022-11-18T21:22:50.211Z,100081.81
2022-11-18T21:25:51.712Z,100089.97
2022-11-18T21:28:54.541Z,100084.34
2022-11-18T21:31:57.706Z,100088.75
2022-11-18T21:34:59.198Z,100094.19
2022-11-18T21:38:04.528Z,100104.69
2022-11-18T21:41:07.601Z,100097.59
2022-11-18T21:44:11.702Z,100093.84
2022-11-18T21:47:13.185Z,100093.00
2022-11-18T21:50:14.902Z,100098.25
2022-11-18T21:53:16.430Z,100113.69
2022-11-18T21:56:20.988Z,100110.97
2022-11-18T21:59:23.578Z,100113.88
2022-11-18T22:02:25.084Z,100114.03
2022-11-18T22:05:27.190Z,100127.44
2022-11-18T22:08:29.184Z,100118.44
2022-11-18T22:11:30.828Z,100114.19
2022-11-18T22:14:32.376Z,100115.06
2022-11-18T22:17:33.905Z,100118.78
2022-11-18T22:20:35.358Z,100115.38
2022-11-18T22:23:37.027Z,100118.28
2022-11-18T22:26:38.591Z,100120.31
2022-11-18T22:29:40.067Z,100136.75
2022-11-18T22:32:43.398Z,100137.78
2022-11-18T22:35:45.475Z,100143.34
2022-11-18T22:38:47.311Z,100138.13
2022-11-18T22:42:07.642Z,100142.00
2022-11-18T22:45:09.350Z,100145.91
2022-11-18T22:48:10.853Z,100149.81
2022-11-18T22:51:12.318Z,100154.53
2022-11-18T22:54:37.870Z,100158.44
2022-11-18T22:57:35.790Z,100163.38
2022-11-18T23:00:37.826Z,100164.53
2022-11-18T23:03:39.386Z,100161.28
2022-11-18T23:06:40.883Z,100172.44
2022-11-18T23:09:42.489Z,100184.31
2022-11-18T23:13:02.262Z,100176.69
2022-11-18T23:16:03.998Z,100185.81
2022-11-18T23:19:11.020Z,100190.25
2022-11-18T23:22:12.977Z,100187.00
2022-11-18T23:25:14.558Z,100189.88
2022-11-18T23:28:15.998Z,100200.88
2022-11-18T23:31:25.292Z,100204.44
2022-11-18T23:34:26.759Z,100202.91
2022-11-18T23:37:28.223Z,100197.66
2022-11-18T23:40:30.961Z,100198.84
2022-11-18T23:43:33.337Z,100201.69
2022-11-18T23:46:35.232Z,100205.44
2022-11-18T23:49:36.775Z,100216.44
2022-11-18T23:52:41.616Z,100220.16
2022-11-18T23:55:43.129Z,100219.63
2022-11-18T23:58:46.777Z,100218.63
